Time;durP1;ratioP1;P1;durP2;ratioP2;P2;SDS_P1;SDS_P2;PMS_P1;PMS_P2;Temp;Humidity;BMP_temperature;BMP_pressure;BME280_temperature;BME280_humidity;BME280_pressure;Samples;Min_cycle;Max_cycle;Signal;HPM_P1;HPM_P2
2022/07/11 00:01:22;;;;;;;0.10;0.10;;;;;;;16.28;100.00;100696.75;7394531;19;20033;-83
2022/07/11 00:03:52;;;;;;;0.28;0.10;;;;;;;16.33;100.00;100696.06;7387702;19;20007;-82
2022/07/11 00:06:18;;;;;;;0.43;0.22;;;;;;;16.37;100.00;100697.34;7386656;19;20022;-82
2022/07/11 00:08:44;;;;;;;0.10;0.10;;;;;;;16.44;100.00;100694.13;7395326;19;20016;-92
2022/07/11 00:11:10;;;;;;;5.05;0.40;;;;;;;16.38;100.00;100695.31;7394200;19;20006;-83
2022/07/11 00:13:36;;;;;;;1.45;0.10;;;;;;;16.38;100.00;100693.28;7396409;19;20022;-87
2022/07/11 00:16:03;;;;;;;0.40;0.30;;;;;;;16.40;100.00;100687.16;7398915;19;20014;-90
2022/07/11 00:18:29;;;;;;;0.20;0.10;;;;;;;16.35;100.00;100685.84;7397468;19;20015;-86
2022/07/11 00:20:56;;;;;;;0.68;0.47;;;;;;;16.37;100.00;100679.75;7399940;19;20057;-92
2022/07/11 00:23:22;;;;;;;0.38;0.32;;;;;;;16.36;100.00;100698.63;7403775;19;20026;-90
2022/07/11 00:25:48;;;;;;;0.25;0.25;;;;;;;16.34;100.00;100692.75;7405410;19;21485;-95
2022/07/11 00:28:14;;;;;;;0.47;0.30;;;;;;;16.31;100.00;100688.09;7406999;19;20018;-93
2022/07/11 00:30:40;;;;;;;0.30;0.20;;;;;;;16.26;100.00;100683.22;7398729;19;20017;-85
2022/07/11 00:33:07;;;;;;;0.20;0.17;;;;;;;16.17;100.00;100672.13;7403399;19;20018;-87
2022/07/11 00:35:33;;;;;;;0.22;0.20;;;;;;;16.12;100.00;100660.78;7398424;19;20010;-92
2022/07/11 00:38:02;;;;;;;0.10;0.10;;;;;;;16.09;100.00;100670.97;7402806;19;20018;-88
2022/07/11 00:40:36;;;;;;;0.20;0.10;;;;;;;16.07;100.00;100676.31;7397594;19;20018;-85
2022/07/11 00:43:22;;;;;;;;;;;;;;;;;;;;;
2022/07/11 00:46:02;;;;;;;0.47;0.20;;;;;;;15.97;100.00;100671.34;7398605;19;20074;-88
2022/07/11 00:48:29;;;;;;;0.80;0.43;;;;;;;15.95;100.00;100671.84;7393038;19;20027;-85
2022/07/11 00:50:56;;;;;;;0.10;0.10;;;;;;;15.88;100.00;100677.91;7395766;19;20369;-84
2022/07/11 00:53:25;;;;;;;1.10;0.50;;;;;;;15.88;100.00;100677.91;7396178;19;20010;-93
2022/07/11 00:55:55;;;;;;;1.17;0.65;;;;;;;15.80;100.00;100676.78;7392862;19;20031;-80
2022/07/11 00:58:21;;;;;;;0.50;0.32;;;;;;;15.73;100.00;100682.81;7395633;19;20022;-87
2022/07/11 01:00:48;;;;;;;0.30;0.30;;;;;;;15.72;100.00;100686.91;7406310;19;20017;-85
2022/07/11 01:03:15;;;;;;;1.73;0.45;;;;;;;15.70;100.00;100689.44;7400850;19;20024;-84
2022/07/11 01:05:41;;;;;;;0.20;0.20;;;;;;;15.65;100.00;100688.09;7397827;19;20318;-93
2022/07/11 01:08:08;;;;;;;0.15;0.15;;;;;;;15.64;100.00;100682.94;7403468;19;20067;-88
2022/07/11 01:10:35;;;;;;;0.55;0.50;;;;;;;15.58;100.00;100682.09;7403982;19;20030;-95
2022/07/11 01:13:01;;;;;;;0.32;0.32;;;;;;;15.53;100.00;100674.38;7402313;19;20033;-87
2022/07/11 01:15:28;;;;;;;0.75;0.20;;;;;;;15.51;100.00;100688.91;7407273;19;20018;-87
2022/07/11 01:17:54;;;;;;;4.03;1.35;;;;;;;15.55;100.00;100680.28;7404004;19;20021;-90
2022/07/11 01:20:22;;;;;;;0.95;0.40;;;;;;;15.56;100.00;100673.41;7407400;19;20010;-89
2022/07/11 01:22:53;;;;;;;0.10;0.10;;;;;;;15.53;100.00;100671.56;7407183;19;20021;-94
2022/07/11 01:25:32;;;;;;;0.45;0.22;;;;;;;15.50;100.00;100669.75;7405906;19;20343;-84
2022/07/11 01:28:03;;;;;;;0.32;0.32;;;;;;;15.49;100.00;100673.81;7399563;19;20011;-90
2022/07/11 01:30:30;;;;;;;2.92;0.40;;;;;;;15.45;100.00;100667.63;7408202;19;20014;-91
2022/07/11 01:32:56;;;;;;;0.25;0.20;;;;;;;15.44;100.00;100660.47;7405009;19;20074;-93
2022/07/11 01:35:23;;;;;;;0.68;0.30;;;;;;;15.42;100.00;100651.75;7403520;19;20018;-88
2022/07/11 01:37:50;;;;;;;1.17;0.38;;;;;;;15.36;100.00;100636.84;7403008;19;20077;-89
2022/07/11 01:40:16;;;;;;;0.20;0.20;;;;;;;15.34;100.00;100639.38;7408586;19;20023;-93
2022/07/11 01:42:43;;;;;;;0.88;0.43;;;;;;;15.30;100.00;100633.19;7403811;19;20011;-90
2022/07/11 01:45:10;;;;;;;0.22;0.20;;;;;;;15.26;100.00;100635.44;7390474;19;20377;-83
2022/07/11 01:47:37;;;;;;;0.40;0.40;;;;;;;15.18;100.00;100638.66;7404609;19;20053;-87
2022/07/11 01:50:05;;;;;;;0.77;0.43;;;;;;;15.15;100.00;100639.63;7403124;19;20019;-88
2022/07/11 01:52:31;;;;;;;1.20;0.73;;;;;;;15.11;100.00;100635.50;7401874;19;20037;-88
2022/07/11 01:54:57;;;;;;;0.10;0.10;;;;;;;15.05;100.00;100629.78;7403779;19;20022;-87
2022/07/11 01:57:23;;;;;;;0.50;0.20;;;;;;;15.01;100.00;100634.03;7399407;19;20014;-88
2022/07/11 01:59:50;;;;;;;0.90;0.40;;;;;;;14.94;100.00;100635.22;7401258;19;20024;-88
2022/07/11 02:02:16;;;;;;;0.17;0.17;;;;;;;14.90;100.00;100631.09;7398258;19;20054;-88
2022/07/11 02:04:42;;;;;;;0.10;0.10;;;;;;;14.83;100.00;100621.03;7398722;19;20415;-88
2022/07/11 02:07:11;;;;;;;0.63;0.55;;;;;;;14.87;100.00;100621.63;7393748;19;20077;-88
2022/07/11 02:09:38;;;;;;;0.50;0.47;;;;;;;14.88;100.00;100613.94;7397894;19;20018;-88
2022/07/11 02:12:06;;;;;;;0.75;0.30;;;;;;;14.83;100.00;100612.63;7394829;19;20014;-88
2022/07/11 02:14:32;;;;;;;0.40;0.40;;;;;;;14.77;100.00;100611.75;7395662;19;20018;-88
2022/07/11 02:16:59;;;;;;;1.13;0.30;;;;;;;14.75;100.00;100605.84;7397304;19;20818;-88
2022/07/11 02:19:25;;;;;;;1.05;0.40;;;;;;;14.71;100.00;100605.28;7399306;19;20040;-88
2022/07/11 02:21:51;;;;;;;0.40;0.10;;;;;;;14.67;100.00;100603.94;7396261;19;20431;-88
2022/07/11 02:24:18;;;;;;;0.90;0.35;;;;;;;14.63;100.00;100609.75;7396532;19;20022;-88
2022/07/11 02:26:44;;;;;;;0.52;0.30;;;;;;;14.55;100.00;100605.81;7394835;19;20036;-88
2022/07/11 02:29:10;;;;;;;0.30;0.30;;;;;;;14.52;100.00;100609.56;7397987;19;20010;-88
2022/07/11 02:31:36;;;;;;;1.45;0.43;;;;;;;14.75;100.00;100611.47;7394758;19;20010;-88
2022/07/11 02:34:02;;;;;;;0.70;0.40;;;;;;;14.55;100.00;100600.19;7393989;19;20034;-87
2022/07/11 02:36:28;;;;;;;0.30;0.22;;;;;;;14.52;100.00;100606.75;7400839;19;20039;-88
2022/07/11 02:38:55;;;;;;;1.10;0.30;;;;;;;14.47;100.00;100607.44;7398102;19;20018;-88
2022/07/11 02:41:21;;;;;;;0.13;0.13;;;;;;;14.38;100.00;100611.13;7396502;19;20074;-88
2022/07/11 02:43:47;;;;;;;0.25;0.25;;;;;;;14.33;100.00;100608.22;7391781;19;20018;-88
2022/07/11 02:46:13;;;;;;;0.22;0.22;;;;;;;14.25;100.00;100602.19;7391802;19;20018;-88
2022/07/11 02:48:39;;;;;;;0.20;0.20;;;;;;;14.24;100.00;100599.88;7388089;19;20013;-88
2022/07/11 02:51:05;;;;;;;0.20;0.20;;;;;;;14.19;100.00;100592.91;7392431;19;20017;-88
2022/07/11 02:53:31;;;;;;;0.47;0.47;;;;;;;14.21;100.00;100600.84;7389988;19;20022;-88
2022/07/11 02:55:57;;;;;;;0.32;0.28;;;;;;;14.23;100.00;100601.13;7393967;19;20015;-88
2022/07/11 02:58:23;;;;;;;0.30;0.30;;;;;;;14.26;100.00;100602.97;7396294;19;20014;-88
2022/07/11 03:00:51;;;;;;;0.20;0.20;;;;;;;14.27;100.00;100605.28;7397469;19;20014;-88
2022/07/11 03:03:17;;;;;;;1.17;0.35;;;;;;;14.30;100.00;100603.56;7396587;19;20010;-88
2022/07/11 03:05:44;;;;;;;0.32;0.32;;;;;;;14.26;100.00;100600.16;7397389;19;20019;-87
2022/07/11 03:08:10;;;;;;;0.65;0.40;;;;;;;14.19;100.00;100592.91;7389879;19;20019;-87
2022/07/11 03:10:36;;;;;;;0.22;0.13;;;;;;;14.17;100.00;100601.03;7393072;19;20025;-87
2022/07/11 03:13:02;;;;;;;0.20;0.10;;;;;;;14.10;100.00;100601.41;7391748;19;20019;-87
2022/07/11 03:15:28;;;;;;;1.00;0.30;;;;;;;14.06;100.00;100606.44;7398373;19;20032;-87
2022/07/11 03:17:54;;;;;;;0.30;0.30;;;;;;;14.01;100.00;100600.75;7394478;19;20464;-88
2022/07/11 03:20:20;;;;;;;0.10;0.10;;;;;;;14.03;100.00;100598.22;7400496;19;20029;-88
2022/07/11 03:22:46;;;;;;;0.20;0.20;;;;;;;13.99;100.00;100603.25;7394688;19;20013;-87
2022/07/11 03:25:12;;;;;;;1.65;0.30;;;;;;;14.00;100.00;100596.38;7394192;19;20086;-88
2022/07/11 03:27:39;;;;;;;0.30;0.30;;;;;;;13.92;100.00;100596.00;7392386;19;20010;-88
2022/07/11 03:30:06;;;;;;;0.20;0.20;;;;;;;13.92;100.00;100600.81;7397632;19;20015;-88
2022/07/11 03:32:32;;;;;;;0.32;0.20;;;;;;;13.87;100.00;100593.84;7393968;19;20031;-88
2022/07/11 03:37:43;;;;;;;0.35;0.35;;;;;;;13.91;100.00;100605.63;7396532;19;20533;-88
2022/07/11 03:40:09;;;;;;;0.40;0.40;;;;;;;13.86;100.00;100591.53;7400066;19;20018;-88
2022/07/11 03:42:36;;;;;;;0.40;0.40;;;;;;;13.82;100.00;100597.31;7395332;19;20022;-88
2022/07/11 03:45:02;;;;;;;0.85;0.20;;;;;;;13.78;100.00;100602.34;7394297;19;20010;-88
2022/07/11 03:47:28;;;;;;;0.38;0.30;;;;;;;13.75;100.00;100603.31;7394496;19;20483;-87
2022/07/11 03:49:55;;;;;;;0.30;0.30;;;;;;;13.69;100.00;100594.78;7396843;19;20018;-87
2022/07/11 03:52:21;;;;;;;0.50;0.50;;;;;;;13.69;100.00;100599.59;7393123;19;20070;-87
2022/07/11 03:54:47;;;;;;;0.35;0.30;;;;;;;13.65;100.00;100602.59;7393372;19;20023;-87
2022/07/11 03:57:13;;;;;;;0.25;0.20;;;;;;;13.64;100.00;100592.63;7393584;19;20018;-88
2022/07/11 03:59:39;;;;;;;0.55;0.30;;;;;;;13.65;100.00;100599.03;7398080;19;20014;-88
2022/07/11 04:02:05;;;;;;;0.63;0.38;;;;;;;13.64;100.00;100597.47;7393778;19;20498;-87
2022/07/11 04:04:31;;;;;;;0.60;0.40;;;;;;;13.65;100.00;100602.59;7395874;19;20021;-88
2022/07/11 04:06:57;;;;;;;0.40;0.40;;;;;;;13.65;100.00;100599.78;7391232;19;20011;-88
2022/07/11 04:09:25;;;;;;;0.93;0.32;;;;;;;13.67;100.00;100594.50;7394408;19;20018;-87
2022/07/11 04:11:51;;;;;;;1.17;0.40;;;;;;;13.72;100.00;100603.47;7392155;19;20022;-87
2022/07/11 04:14:17;;;;;;;8.30;1.45;;;;;;;13.69;100.00;100600.38;7396611;19;20014;-88
2022/07/11 04:16:43;;;;;;;0.30;0.30;;;;;;;13.72;100.00;100595.06;7395475;19;20033;-88
2022/07/11 04:19:09;;;;;;;0.65;0.47;;;;;;;13.78;100.00;100590.34;7396020;19;20038;-88
2022/07/11 04:21:36;;;;;;;2.25;1.48;;;;;;;13.83;100.00;100598.09;7394014;19;20042;-88
2022/07/11 04:24:02;;;;;;;0.65;0.40;;;;;;;13.79;100.00;100600.31;7394754;19;20010;-88
2022/07/11 04:26:28;;;;;;;0.35;0.10;;;;;;;13.87;100.00;100599.47;7392560;19;20034;-88
2022/07/11 04:28:54;;;;;;;0.45;0.45;;;;;;;13.93;100.00;100599.56;7396073;19;20011;-87
2022/07/11 04:31:20;;;;;;;0.40;0.40;;;;;;;13.93;100.00;100596.75;7401035;19;20112;-87
2022/07/11 04:33:46;;;;;;;1.00;0.43;;;;;;;13.93;100.00;100596.75;7403128;19;20023;-88
2022/07/11 04:36:12;;;;;;;0.20;0.20;;;;;;;13.93;100.00;100593.94;7403725;19;20026;-88
2022/07/11 04:38:39;;;;;;;1.17;0.60;;;;;;;13.92;100.00;100601.59;7399719;19;20014;-88
2022/07/11 04:41:05;;;;;;;1.02;0.60;;;;;;;13.89;100.00;100602.56;7401884;19;20464;-88
2022/07/11 04:43:31;;;;;;;0.82;0.55;;;;;;;13.90;100.00;100598.50;7402118;19;20019;-88
2022/07/11 04:45:57;;;;;;;0.22;0.22;;;;;;;13.92;100.00;100600.81;7397652;19;20022;-88
2022/07/11 04:48:23;;;;;;;0.30;0.20;;;;;;;13.97;100.00;100608.56;7399047;19;20014;-88
2022/07/11 04:50:49;;;;;;;0.20;0.10;;;;;;;13.97;100.00;100602.97;7396995;19;20014;-87
2022/07/11 04:53:15;;;;;;;0.82;0.47;;;;;;;14.05;100.00;100601.31;7397825;19;20369;-88
2022/07/11 04:55:42;;;;;;;0.35;0.35;;;;;;;14.11;100.00;100602.19;7396774;19;20079;-88
2022/07/11 04:58:08;;;;;;;1.42;0.38;;;;;;;14.14;100.00;100602.00;7398488;19;20026;-87
2022/07/11 05:00:35;;;;;;;5.45;0.85;;;;;;;14.20;100.00;100600.09;7404116;19;20034;-88
2022/07/11 05:03:02;;;;;;;0.40;0.32;;;;;;;14.24;100.00;100608.28;7403549;19;20021;-88
2022/07/11 05:05:28;;;;;;;0.10;0.10;;;;;;;14.29;100.00;100605.59;7402739;19;20070;-88
2022/07/11 05:07:54;;;;;;;0.30;0.30;;;;;;;14.33;100.00;100617.41;7399195;19;20652;-88
2022/07/11 05:10:21;;;;;;;0.40;0.40;;;;;;;14.38;100.00;100621.53;7402591;19;20014;-88
2022/07/11 05:12:47;;;;;;;0.22;0.22;;;;;;;14.39;100.00;100618.28;7399916;19;20014;-88
2022/07/11 05:15:13;;;;;;;0.55;0.40;;;;;;;14.40;100.00;100619.06;7402904;19;20029;-88
2022/07/11 05:17:39;;;;;;;0.20;0.20;;;;;;;14.44;100.00;100619.63;7399136;19;20019;-88
2022/07/11 05:20:06;;;;;;;13.90;0.73;;;;;;;14.47;100.00;100609.50;7402334;19;20010;-87
2022/07/11 05:22:33;;;;;;;1.20;0.40;;;;;;;14.49;100.00;100610.53;7399227;19;20025;-89
2022/07/11 05:24:59;;;;;;;0.30;0.30;;;;;;;14.49;100.00;100610.53;7399487;19;20030;-88
2022/07/11 05:27:25;;;;;;;0.47;0.40;;;;;;;14.53;100.00;100604.75;7398968;19;20038;-89
2022/07/11 05:29:51;;;;;;;0.10;0.10;;;;;;;14.65;100.00;100610.03;7400993;19;20504;-89
2022/07/11 05:32:17;;;;;;;0.20;0.20;;;;;;;14.73;100.00;100614.00;7398477;19;20031;-89
2022/07/11 05:34:43;;;;;;;6.50;0.40;;;;;;;14.79;100.00;100616.91;7397834;19;20021;-88
2022/07/11 05:37:09;;;;;;;0.10;0.10;;;;;;;14.85;100.00;100610.13;7400582;19;20502;-88
2022/07/11 05:39:36;;;;;;;2.40;1.73;;;;;;;14.95;100.00;100614.34;7401669;19;20018;-89
2022/07/11 05:42:02;;;;;;;0.73;0.20;;;;;;;15.06;100.00;100608.91;7397890;19;20571;-90
2022/07/11 05:44:28;;;;;;;0.65;0.50;;;;;;;15.10;100.00;100603.84;7399873;19;20041;-90
2022/07/11 05:47:02;;;;;;;0.35;0.35;;;;;;;15.21;100.00;100597.63;7397598;19;20021;-90
2022/07/11 05:49:31;;;;;;;0.10;0.10;;;;;;;15.23;100.00;100606.31;7399000;19;20094;-90
2022/07/11 05:51:57;;;;;;;10.10;0.63;;;;;;;15.33;100.00;100613.34;7398477;19;20025;-90
2022/07/11 05:54:24;;;;;;;0.20;0.20;;;;;;;15.42;100.00;100612.44;7397373;19;20018;-90
2022/07/11 05:56:50;;;;;;;0.75;0.20;;;;;;;15.47;100.00;100606.94;7403184;19;20014;-89
2022/07/11 05:59:16;;;;;;;0.30;0.30;;;;;;;15.55;100.00;100610.09;7402005;19;20007;-89
2022/07/11 06:01:42;;;;;;;2.50;0.60;;;;;;;15.65;100.00;100609.47;7400656;19;20520;-90
2022/07/11 06:04:08;;;;;;;0.10;0.10;;;;;;;15.74;100.00;100612.09;7399633;19;20041;-90
2022/07/11 06:06:35;;;;;;;0.38;0.17;;;;;;;15.85;100.00;100605.88;7397385;19;20330;-90
2022/07/11 06:09:01;;;;;;;0.15;0.15;;;;;;;15.94;100.00;100617.69;7399856;19;20018;-89
2022/07/11 06:11:27;;;;;;;0.22;0.22;;;;;;;15.99;100.00;100612.63;7394462;19;20074;-89
2022/07/11 06:13:53;;;;;;;0.10;0.10;;;;;;;16.05;100.00;100621.91;7395410;19;20066;-88
2022/07/11 06:16:19;;;;;;;0.30;0.10;;;;;;;16.08;100.00;100607.63;7395258;19;20447;-89
2022/07/11 06:18:45;;;;;;;0.70;0.28;;;;;;;16.20;100.00;100614.16;7399116;19;20039;-89
2022/07/11 06:21:12;;;;;;;0.45;0.15;;;;;;;16.30;100.00;100613.50;7398352;19;20022;-88
2022/07/11 06:23:38;;;;;;;0.68;0.45;;;;;;;16.36;100.00;100617.13;7398426;19;20011;-89
2022/07/11 06:26:04;;;;;;;0.70;0.40;;;;;;;16.41;100.00;100612.81;7397582;19;20019;-90
2022/07/11 06:28:31;;;;;;;1.38;0.50;;;;;;;16.46;100.00;100607.22;7397121;19;20010;-89
2022/07/11 06:30:57;;;;;;;0.88;0.20;;;;;;;16.49;100.00;100617.50;7396263;19;20505;-89
2022/07/11 06:33:23;;;;;;;1.20;0.28;;;;;;;16.56;100.00;100619.88;7396677;19;20023;-90
2022/07/11 06:35:49;;;;;;;0.40;0.10;;;;;;;16.63;100.00;100619.41;7400563;19;20074;-91
2022/07/11 06:38:16;;;;;;;2.30;0.40;;;;;;;16.80;100.00;100615.97;7397248;19;20022;-89
2022/07/11 06:40:42;;;;;;;0.63;0.20;;;;;;;16.99;100.00;100611.50;7399571;19;20479;-91
2022/07/11 06:43:12;;;;;;;5.57;0.22;;;;;;;17.27;100.00;100623.72;7398559;19;20025;-90
2022/07/11 06:45:38;;;;;;;1.20;0.30;;;;;;;17.41;100.00;100617.16;7396716;19;20019;-90
2022/07/11 06:48:05;;;;;;;0.10;0.10;;;;;;;17.52;100.00;100611.56;7401533;19;20015;-90
2022/07/11 06:50:32;;;;;;;0.35;0.30;;;;;;;17.44;100.00;100614.09;7398735;19;20013;-90
2022/07/11 06:52:59;;;;;;;0.10;0.10;;;;;;;17.45;100.00;100612.03;7396880;19;20478;-90
2022/07/11 06:55:25;;;;;;;0.88;0.28;;;;;;;17.57;100.00;100613.66;7397048;19;20023;-90
2022/07/11 06:57:51;;;;;;;1.95;0.73;;;;;;;17.70;100.00;100613.19;7397281;19;20015;-91
2022/07/11 07:00:18;;;;;;;1.52;0.20;;;;;;;17.85;100.00;100610.94;7402691;19;20070;-90
2022/07/11 07:02:45;;;;;;;1.38;0.73;;;;;;;18.13;100.00;100609.72;7402709;19;20022;-91
2022/07/11 07:05:11;;;;;;;1.10;0.38;;;;;;;18.33;100.00;100613.59;7399568;19;20359;-91
2022/07/11 07:07:37;;;;;;;3.80;0.17;;;;;;;18.47;100.00;100613.41;7394145;19;20086;-89
2022/07/11 07:10:04;;;;;;;6.75;0.25;;;;;;;18.58;100.00;100613.41;7399183;19;20044;-90
2022/07/11 07:12:31;;;;;;;0.60;0.25;;;;;;;18.62;100.00;100618.81;7396180;19;20011;-90
2022/07/11 07:15:00;;;;;;;0.20;0.20;;;;;;;18.75;100.00;100610.59;7394125;19;20018;-89
2022/07/11 07:17:26;;;;;;;0.30;0.30;;;;;;;18.92;100.00;100614.16;7397074;19;20023;-89
2022/07/11 07:19:52;;;;;;;2.65;0.30;;;;;;;19.06;100.00;100618.00;7399861;19;21261;-89
2022/07/11 07:22:18;;;;;;;0.88;0.20;;;;;;;19.20;100.00;100619.75;7396939;19;20326;-89
2022/07/11 07:24:45;;;;;;;1.92;0.93;;;;;;;19.31;100.00;100617.69;7393410;19;20019;-86
2022/07/11 07:27:11;;;;;;;1.95;0.30;;;;;;;19.45;100.00;100618.69;7390759;19;20010;-83
2022/07/11 07:29:38;;;;;;;2.10;0.55;;;;;;;19.58;100.00;100616.84;7387513;19;20026;-82
2022/07/11 07:32:05;;;;;;;3.15;0.68;;;;;;;19.77;100.00;100613.44;7384649;19;20021;-82
2022/07/11 07:34:32;;;;;;;2.10;0.60;;;;;;;19.91;100.00;100612.31;7386150;19;20114;-83
2022/07/11 07:36:59;;;;;;;2.25;0.77;;;;;;;20.05;100.00;100625.38;7385857;19;20369;-81
2022/07/11 07:39:25;;;;;;;4.75;0.63;;;;;;;20.17;100.00;100621.19;7388819;19;20033;-85
2022/07/11 07:41:51;;;;;;;2.42;0.68;;;;;;;20.32;100.00;100613.13;7386038;19;20031;-84
2022/07/11 07:44:18;;;;;;;0.60;0.30;;;;;;;20.46;100.00;100623.34;7386207;19;20674;-83
2022/07/11 07:46:44;;;;;;;5.70;1.25;;;;;;;20.56;100.00;100616.03;7386173;19;20022;-83
2022/07/11 07:49:10;;;;;;;3.90;0.82;;;;;;;20.69;100.00;100621.09;7389621;19;20503;-84
2022/07/11 07:51:37;;;;;;;1.13;0.60;;;;;;;20.80;100.00;100618.16;7389265;19;20489;-83
2022/07/11 07:54:03;;;;;;;2.25;0.95;;;;;;;20.92;100.00;100620.34;7391042;19;20024;-84
2022/07/11 07:56:29;;;;;;;4.50;0.80;;;;;;;21.04;100.00;100616.16;7388130;19;20140;-86
2022/07/11 07:58:56;;;;;;;7.55;0.90;;;;;;;21.19;100.00;100615.75;7392415;19;20015;-86
2022/07/11 08:01:34;;;;;;;9.20;1.20;;;;;;;21.32;100.00;100623.59;7390182;19;20480;-89
2022/07/11 08:04:05;;;;;;;3.17;1.00;;;;;;;21.48;100.00;100619.81;7397775;19;20021;-87
2022/07/11 08:06:32;;;;;;;2.03;0.60;;;;;;;21.56;100.00;100610.19;7401485;19;20073;-88
2022/07/11 08:08:58;;;;;;;3.75;1.08;;;;;;;21.74;100.00;100611.53;7403657;19;20018;-86
2022/07/11 08:11:25;;;;;;;2.90;0.80;;;;;;;22.08;100.00;100609.78;7403531;19;20014;-87
2022/07/11 08:13:52;;;;;;;3.22;0.43;;;;;;;22.27;100.00;100604.88;7401334;19;20018;-86
2022/07/11 08:16:19;;;;;;;4.43;0.40;;;;;;;22.82;100.00;100602.47;7398352;19;20018;-88
2022/07/11 08:18:45;;;;;;;5.90;0.65;;;;;;;22.96;100.00;100595.47;7399888;19;20014;-85
2022/07/11 08:21:12;;;;;;;3.35;1.50;;;;;;;23.02;100.00;100588.38;7392552;19;20070;-84
2022/07/11 08:23:38;;;;;;;4.65;0.82;;;;;;;23.23;100.00;100585.69;7395335;19;20014;-85
2022/07/11 08:26:04;;;;;;;2.00;0.38;;;;;;;23.50;100.00;100592.91;7393345;19;20015;-83
2022/07/11 08:28:31;;;;;;;4.35;1.13;;;;;;;23.65;100.00;100595.97;7393420;19;20018;-86
2022/07/11 08:30:57;;;;;;;5.97;0.52;;;;;;;23.78;100.00;100607.31;7392906;19;20480;-85
2022/07/11 08:33:23;;;;;;;6.68;1.42;;;;;;;23.99;100.00;100596.03;7392093;19;20022;-83
2022/07/11 08:35:49;;;;;;;2.95;0.63;;;;;;;24.20;100.00;100602.56;7397316;19;20018;-90
2022/07/11 08:38:15;;;;;;;3.75;0.82;;;;;;;24.36;100.00;100600.63;7403640;19;20010;-88
2022/07/11 08:40:42;;;;;;;6.22;1.65;;;;;;;24.65;100.00;100596.53;7406301;19;20485;-89
2022/07/11 08:43:17;;;;;;;9.13;1.38;;;;;;;24.87;100.00;100590.31;7401063;19;20056;-89
2022/07/11 08:45:44;;;;;;;1.55;0.22;;;;;;;25.05;100.00;100585.69;7402230;19;20015;-89
2022/07/11 08:48:15;;;;;;;5.43;1.27;;;;;;;25.13;100.00;100590.13;7399664;19;20034;-89
2022/07/11 08:50:41;;;;;;;6.60;1.90;;;;;;;25.33;100.00;100589.31;7402218;19;20015;-89
2022/07/11 08:53:09;;;;;;;7.63;0.88;;;;;;;25.56;100.00;100590.22;7397522;19;20333;-89
2022/07/11 08:55:36;;;;;;;2.67;0.55;;;;;;;25.76;100.00;100587.84;7399243;19;20007;-89
2022/07/11 08:58:03;;;;;;;6.45;0.75;;;;;;;26.14;100.00;100583.06;7399389;19;20404;-88
2022/07/11 09:00:29;;;;;;;4.10;0.45;;;;;;;26.35;100.00;100577.22;7403192;19;20011;-90
2022/07/11 09:02:58;;;;;;;1.42;0.28;;;;;;;26.21;100.00;100577.38;7399967;19;20011;-85
2022/07/11 09:05:24;;;;;;;2.10;0.30;;;;;;;26.19;100.00;100582.13;7394881;19;20020;-85
2022/07/11 09:07:50;;;;;;;0.55;0.10;;;;;;;26.34;100.00;100579.28;7397045;19;20014;-86
2022/07/11 09:10:18;;;;;;;3.10;0.22;;;;;;;26.62;100.00;100573.44;7399109;19;20884;-84
2022/07/11 09:13:05;;;;;;;3.50;0.43;;;;;;;26.99;100.00;100566.97;7398197;19;20465;-96
2022/07/11 09:15:37;;;;;;;0.10;0.00;;;;;;;27.29;100.00;100574.00;7393978;19;20358;-85
2022/07/11 09:18:24;;;;;;;0.55;0.10;;;;;;;27.49;100.00;100564.41;7393337;19;20015;-84
2022/07/11 09:26:36;;;;;;;0.10;0.00;;;;;;;28.02;100.00;100559.25;7397454;19;20007;-84
2022/07/11 09:29:03;;;;;;;0.88;0.30;;;;;;;28.19;100.00;100553.63;7395762;19;20017;-83
2022/07/11 09:31:34;;;;;;;0.70;0.35;;;;;;;28.39;100.00;100551.78;7390708;19;20023;-86
2022/07/11 09:34:09;;;;;;;0.52;0.10;;;;;;;28.39;100.00;100552.50;7398310;19;20045;-82
2022/07/11 09:36:37;;;;;;;0.40;0.13;;;;;;;28.43;100.00;100563.59;7397883;19;20011;-91
2022/07/11 09:39:04;;;;;;;3.40;0.47;;;;;;;28.44;100.00;100560.13;7397421;19;20065;-93
2022/07/11 09:41:38;;;;;;;0.10;0.10;;;;;;;28.66;100.00;100557.69;7404738;19;20360;-89
2022/07/11 09:44:23;;;;;;;4.47;0.10;;;;;;;28.83;100.00;100561.38;7399326;19;20014;-84
2022/07/11 09:46:53;;;;;;;0.50;0.10;;;;;;;28.84;100.00;100557.16;7391202;19;20018;-87
2022/07/11 09:49:33;;;;;;;9.07;0.30;;;;;;;28.80;100.00;100556.81;7392704;19;20026;-86
2022/07/11 09:52:11;;;;;;;0.30;0.10;;;;;;;28.84;100.00;100559.28;7396869;19;20017;-91
2022/07/11 09:54:56;;;;;;;0.10;0.00;;;;;;;28.90;100.00;100554.03;7399272;19;20023;-90
2022/07/11 09:57:36;;;;;;;3.40;0.10;;;;;;;28.88;100.00;100557.50;7400771;19;20085;-85
2022/07/11 10:00:05;;;;;;;3.42;0.10;;;;;;;28.94;100.00;100554.38;7401944;19;20324;-85
2022/07/11 10:02:32;;;;;;;0.68;0.28;;;;;;;29.08;100.00;100549.88;7396342;19;20012;-85
2022/07/11 10:04:59;;;;;;;0.63;0.10;;;;;;;29.18;100.00;100559.34;7390865;19;20031;-83
2022/07/11 10:07:27;;;;;;;0.85;0.30;;;;;;;29.17;100.00;100555.72;7392503;19;20054;-84
2022/07/11 10:09:54;;;;;;;0.55;0.20;;;;;;;29.06;100.00;100550.44;7400141;19;20106;-90
2022/07/11 10:12:20;;;;;;;0.30;0.20;;;;;;;29.10;100.00;100538.56;7404205;19;20026;-88
2022/07/11 10:14:49;;;;;;;0.10;0.00;;;;;;;29.17;100.00;100546.38;7401534;19;20251;-85
2022/07/11 10:17:52;;;;;;;1.80;0.08;;;;;;;29.42;100.00;100544.16;7418787;19;20019;-85
2022/07/11 10:20:30;;;;;;;0.57;0.10;;;;;;;29.63;98.12;100544.47;7419201;19;20031;-85
2022/07/11 10:23:12;;;;;;;0.88;0.10;;;;;;;29.78;94.99;100535.69;7400268;19;20064;-89
2022/07/11 10:25:53;;;;;;;0.73;0.00;;;;;;;29.93;94.87;100535.50;7397034;19;20037;-91
2022/07/11 10:28:36;;;;;;;1.05;0.00;;;;;;;29.91;96.16;100532.44;7396131;19;20044;-89
2022/07/11 10:31:03;;;;;;;0.20;0.10;;;;;;;29.80;94.33;100530.13;7392016;19;20014;-88
2022/07/11 10:33:55;;;;;;;0.40;0.00;;;;;;;29.83;98.13;100528.94;7400566;19;20010;-96
2022/07/11 10:36:29;;;;;;;0.55;0.10;;;;;;;29.87;95.17;100535.00;7397428;19;20007;-90
2022/07/11 10:39:17;;;;;;;0.20;0.00;;;;;;;29.96;92.09;100533.53;7400276;19;20042;-92
2022/07/11 10:41:44;;;;;;;0.32;0.08;;;;;;;29.97;89.62;100530.06;7399722;19;20036;-95
2022/07/11 10:44:11;;;;;;;0.10;0.00;;;;;;;29.96;90.03;100537.19;7405054;19;20022;-93
2022/07/11 10:46:37;;;;;;;2.08;0.10;;;;;;;29.91;89.45;100535.31;7391939;19;20018;-88
2022/07/11 10:49:13;;;;;;;0.85;0.00;;;;;;;29.93;87.10;100532.63;7400019;19;20007;-90
2022/07/11 10:52:21;;;;;;;1.50;0.10;;;;;;;29.95;85.19;100532.78;7393995;19;20010;-86
2022/07/11 10:54:55;;;;;;;1.08;0.10;;;;;;;30.05;87.52;100532.06;7395161;19;20062;-86
2022/07/11 10:57:38;;;;;;;0.30;0.10;;;;;;;30.24;88.02;100527.19;7400023;19;20122;-96
2022/07/11 11:00:08;;;;;;;0.20;0.00;;;;;;;30.48;85.46;100528.38;7400664;19;20070;-96
2022/07/11 11:03:00;;;;;;;0.10;0.00;;;;;;;30.60;84.32;100529.34;7397675;19;20382;-89
2022/07/11 11:05:54;;;;;;;1.48;0.00;;;;;;;30.58;83.12;100532.06;7396906;19;20007;-95
2022/07/11 11:08:35;;;;;;;0.65;0.10;;;;;;;30.73;83.50;100526.78;7400066;19;20346;-95
2022/07/11 11:11:06;;;;;;;0.00;0.00;;;;;;;30.88;80.59;100522.19;7396246;19;20007;-90
2022/07/11 11:13:37;;;;;;;1.98;0.10;;;;;;;30.96;79.24;100517.03;7387598;19;20089;-91
2022/07/11 11:16:20;;;;;;;0.40;0.00;;;;;;;30.94;77.40;100523.41;7397549;19;20017;-91
2022/07/11 11:18:46;;;;;;;1.02;0.10;;;;;;;31.06;77.25;100521.44;7398620;19;20021;-91
2022/07/11 11:21:13;;;;;;;0.40;0.00;;;;;;;31.18;78.72;100531.00;7385080;19;20015;-86
2022/07/11 11:23:44;;;;;;;0.65;0.20;;;;;;;31.14;75.31;100527.06;7392634;19;20019;-85
2022/07/11 11:26:12;;;;;;;4.63;0.40;;;;;;;31.25;72.22;100527.19;7390157;19;20026;-86
2022/07/11 11:28:54;;;;;;;0.20;0.00;;;;;;;31.42;69.20;100524.19;7392966;19;20018;-85
2022/07/11 11:31:20;;;;;;;0.10;0.00;;;;;;;31.53;69.07;100530.72;7393543;19;20006;-86
2022/07/11 11:33:47;;;;;;;0.47;0.10;;;;;;;31.69;70.61;100518.28;7390969;19;20074;-87